createdAt,value
2018-02-22T00:00:37.761Z,99028.28
2018-02-22T00:03:05.169Z,99026.55
2018-02-22T00:05:32.593Z,99024.19
2018-02-22T00:08:00.000Z,99026.29
2018-02-22T00:10:27.426Z,99025.05
2018-02-22T00:12:54.833Z,99016.84
2018-02-22T00:15:22.254Z,99018.98
2018-02-22T00:17:49.661Z,99021.73
2018-02-22T00:20:17.081Z,99024.78
2018-02-22T00:22:44.500Z,99021.08
2018-02-22T00:25:11.917Z,99025.03
2018-02-22T00:27:39.325Z,99025.16
2018-02-22T00:30:06.745Z,99021.72
2018-02-22T00:32:34.153Z,99015.15
2018-02-22T00:35:01.569Z,99016.38
2018-02-22T00:37:28.979Z,99019.02
2018-02-22T00:39:56.394Z,99017.82
2018-02-22T00:42:24.750Z,99009.14
2018-02-22T00:44:52.168Z,99017.39
2018-02-22T00:47:19.579Z,99009.77
2018-02-22T00:49:47.780Z,99007.56
2018-02-22T00:52:15.185Z,99009.07
2018-02-22T00:54:42.609Z,99013.17
2018-02-22T00:57:10.017Z,99002.81
2018-02-22T00:59:37.437Z,98999.44
2018-02-22T01:02:04.857Z,98993.84
2018-02-22T01:04:32.285Z,98995.48
2018-02-22T01:06:59.693Z,98999.06
2018-02-22T01:09:27.118Z,98998.40
2018-02-22T01:11:55.569Z,99000.92
2018-02-22T01:14:22.996Z,98998.20
2018-02-22T01:16:50.405Z,99002.11
2018-02-22T01:19:17.818Z,99003.88
2018-02-22T01:21:45.239Z,99008.51
2018-02-22T01:24:12.650Z,99003.16
2018-02-22T01:26:40.079Z,98997.06
2018-02-22T01:29:07.481Z,98999.73
2018-02-22T01:31:34.897Z,98995.67
2018-02-22T01:34:02.306Z,98998.30
2018-02-22T01:36:29.720Z,98990.19
2018-02-22T01:38:57.136Z,98990.58
2018-02-22T01:41:24.561Z,98997.02
2018-02-22T01:43:51.974Z,98983.70
2018-02-22T01:46:19.397Z,98979.52
2018-02-22T01:48:46.805Z,98974.25
2018-02-22T01:51:14.230Z,98975.92
2018-02-22T01:53:41.645Z,98980.75
2018-02-22T01:56:09.074Z,98974.59
2018-02-22T02:01:10.227Z,98974.37
2018-02-22T02:03:37.632Z,98967.39
2018-02-22T02:06:05.049Z,98968.36
2018-02-22T02:08:32.466Z,98971.55
2018-02-22T02:10:59.906Z,98968.80
2018-02-22T02:13:27.449Z,98966.13
2018-02-22T02:15:54.876Z,98970.36
2018-02-22T02:18:22.284Z,98966.13
2018-02-22T02:20:49.705Z,98961.55
2018-02-22T02:23:17.122Z,98967.70
2018-02-22T02:25:44.545Z,98967.28
2018-02-22T02:28:11.958Z,98964.80
2018-02-22T02:30:39.374Z,98960.52
2018-02-22T02:33:06.785Z,98962.14
2018-02-22T02:35:34.207Z,98963.70
2018-02-22T02:38:01.618Z,98954.73
2018-02-22T02:40:29.038Z,98958.69
2018-02-22T02:42:56.448Z,98954.73
2018-02-22T02:45:23.875Z,98948.34
2018-02-22T02:47:51.287Z,98952.08
2018-02-22T02:50:18.692Z,98943.92
2018-02-22T02:52:46.118Z,98942.59
2018-02-22T02:55:13.537Z,98945.64
2018-02-22T02:57:40.958Z,98940.48
2018-02-22T03:00:08.376Z,98947.25
2018-02-22T03:02:35.805Z,98939.88
2018-02-22T03:05:03.213Z,98935.67
2018-02-22T03:07:30.642Z,98937.58
2018-02-22T03:09:59.088Z,98932.97
2018-02-22T03:12:26.856Z,98929.48
2018-02-22T03:14:54.266Z,98925.52
2018-02-22T03:17:21.689Z,98929.97
2018-02-22T03:19:49.109Z,98933.30
2018-02-22T03:22:16.532Z,98931.11
2018-02-22T03:24:43.943Z,98931.48
2018-02-22T03:27:11.375Z,98928.96
2018-02-22T03:29:38.781Z,98925.58
2018-02-22T03:32:06.206Z,98926.76
2018-02-22T03:34:33.621Z,98920.05
2018-02-22T03:37:01.042Z,98926.58
2018-02-22T03:39:28.455Z,98924.44
2018-02-22T03:41:55.877Z,98927.91
2018-02-22T03:44:23.289Z,98917.00
2018-02-22T03:46:50.705Z,98924.05
2018-02-22T03:49:18.123Z,98921.00
2018-02-22T03:51:45.533Z,98930.67
2018-02-22T03:54:12.944Z,98928.67
2018-02-22T03:56:40.366Z,98929.10
2018-02-22T03:59:07.778Z,98926.73
2018-02-22T04:01:35.201Z,98923.86
2018-02-22T04:04:02.621Z,98921.05
2018-02-22T04:06:30.819Z,98932.10
2018-02-22T04:08:58.225Z,98930.44
2018-02-22T04:11:25.644Z,98936.44
2018-02-22T04:13:53.048Z,98928.91
2018-02-22T04:16:20.469Z,98933.55
2018-02-22T04:18:47.873Z,98931.45
2018-02-22T04:21:15.309Z,98928.48
2018-02-22T04:23:42.716Z,98933.25
2018-02-22T04:26:10.130Z,98934.92
2018-02-22T04:28:37.553Z,98933.25
2018-02-22T04:31:04.957Z,98941.11
2018-02-22T04:33:32.382Z,98934.26
2018-02-22T04:35:59.802Z,98932.68
2018-02-22T04:38:27.214Z,98936.45
2018-02-22T04:40:54.623Z,98936.06
2018-02-22T04:43:22.035Z,98935.59
2018-02-22T04:45:49.444Z,98942.96
2018-02-22T04:48:16.861Z,98948.20
2018-02-22T04:50:44.277Z,98941.72
2018-02-22T04:53:11.697Z,98940.78
2018-02-22T04:55:39.108Z,98942.20
2018-02-22T04:58:06.533Z,98941.82
2018-02-22T05:00:33.945Z,98939.29
2018-02-22T05:03:01.360Z,98939.20
2018-02-22T05:05:28.767Z,98938.48
2018-02-22T05:07:56.205Z,98945.86
2018-02-22T05:10:23.617Z,98940.33
2018-02-22T05:12:51.039Z,98941.10
2018-02-22T05:15:18.452Z,98932.56
2018-02-22T05:17:45.864Z,98934.37
2018-02-22T05:20:13.284Z,98945.05
2018-02-22T05:22:40.701Z,98939.91
2018-02-22T05:25:08.112Z,98944.06
2018-02-22T05:27:35.540Z,98937.48
2018-02-22T05:30:03.766Z,98931.91
2018-02-22T05:32:31.184Z,98935.77
2018-02-22T05:34:58.602Z,98933.43
2018-02-22T05:37:26.032Z,98931.33
2018-02-22T05:39:53.451Z,98940.33
2018-02-22T05:42:20.860Z,98932.61
2018-02-22T05:44:48.270Z,98936.39
2018-02-22T05:47:15.689Z,98936.91
2018-02-22T05:49:43.098Z,98930.85
2018-02-22T05:52:10.530Z,98929.19
2018-02-22T05:54:37.936Z,98926.42
2018-02-22T05:57:05.348Z,98925.95
2018-02-22T05:59:32.768Z,98932.14
2018-02-22T06:02:00.186Z,98931.33
2018-02-22T06:04:27.607Z,98936.22
2018-02-22T06:06:55.018Z,98929.70
2018-02-22T06:09:22.437Z,98927.91
2018-02-22T06:11:49.857Z,98927.89
2018-02-22T06:14:17.283Z,98924.09
2018-02-22T06:16:44.701Z,98936.90
2018-02-22T06:19:12.129Z,98928.28
2018-02-22T06:21:39.541Z,98926.86
2018-02-22T06:24:06.967Z,98935.73
2018-02-22T06:26:34.375Z,98931.20
2018-02-22T06:29:01.801Z,98931.53
2018-02-22T06:31:29.237Z,98930.92
2018-02-22T06:33:57.069Z,98937.44
2018-02-22T06:36:24.477Z,98932.67
2018-02-22T06:38:51.917Z,98938.96
2018-02-22T06:41:19.324Z,98937.11
2018-02-22T06:43:46.745Z,98938.92
2018-02-22T06:46:14.160Z,98940.87
2018-02-22T06:48:41.581Z,98938.25
2018-02-22T06:51:08.994Z,98941.20
2018-02-22T06:53:36.809Z,98948.87
2018-02-22T06:56:04.243Z,98943.73
2018-02-22T06:58:31.664Z,98937.52
2018-02-22T07:00:59.083Z,98939.33
2018-02-22T07:03:26.504Z,98949.45
2018-02-22T07:05:53.917Z,98947.09
2018-02-22T07:08:21.336Z,98943.45
2018-02-22T07:10:48.748Z,98935.20
2018-02-22T07:13:16.165Z,98939.06
2018-02-22T07:15:43.580Z,98947.98
2018-02-22T07:18:11.004Z,98947.72
2018-02-22T07:20:38.421Z,98945.95
2018-02-22T07:23:16.650Z,98943.75
2018-02-22T07:25:33.257Z,98943.81
2018-02-22T07:28:00.669Z,98947.23
2018-02-22T07:30:28.094Z,98944.52
2018-02-22T07:32:55.503Z,98945.89
2018-02-22T07:35:22.923Z,98950.35
2018-02-22T07:37:50.330Z,98945.14
2018-02-22T07:40:17.745Z,98947.45
2018-02-22T07:42:45.152Z,98934.67
2018-02-22T07:45:12.570Z,98944.83
2018-02-22T07:47:39.989Z,98942.50
2018-02-22T07:50:07.406Z,98939.39
2018-02-22T07:52:34.831Z,98948.77
2018-02-22T07:55:02.250Z,98944.70
2018-02-22T07:57:29.658Z,98939.55
2018-02-22T07:59:57.083Z,98941.89
2018-02-22T08:02:24.489Z,98943.41
2018-02-22T08:04:51.921Z,98945.61
2018-02-22T08:07:19.334Z,98937.27
2018-02-22T08:09:46.757Z,98943.92
2018-02-22T08:12:14.165Z,98940.97
2018-02-22T08:14:41.586Z,98927.63
2018-02-22T08:17:08.996Z,98939.02
2018-02-22T08:19:36.416Z,98933.98
2018-02-22T08:22:03.821Z,98943.11
2018-02-22T08:24:31.236Z,98936.80
2018-02-22T08:26:58.649Z,98928.56
2018-02-22T08:29:26.068Z,98933.59
2018-02-22T08:31:53.490Z,98942.36
2018-02-22T08:34:20.936Z,98939.86
2018-02-22T08:36:48.354Z,98941.56
2018-02-22T08:39:15.799Z,98945.45
2018-02-22T08:41:43.182Z,98933.66
2018-02-22T08:44:11.290Z,98939.16
2018-02-22T08:46:38.705Z,98934.64
2018-02-22T08:49:06.130Z,98927.70
2018-02-22T08:51:33.541Z,98925.55
2018-02-22T08:54:00.972Z,98927.09
2018-02-22T08:56:28.391Z,98923.75
2018-02-22T08:58:55.802Z,98921.67
2018-02-22T09:01:23.217Z,98921.53
2018-02-22T09:03:50.633Z,98907.83
2018-02-22T09:06:18.060Z,98916.11
2018-02-22T09:08:45.493Z,98902.02
2018-02-22T09:11:12.898Z,98900.92
2018-02-22T09:13:40.317Z,98911.47
2018-02-22T09:16:07.740Z,98913.42
2018-02-22T09:18:35.149Z,98910.22
2018-02-22T09:21:02.574Z,98903.95
2018-02-22T09:23:29.990Z,98909.91
2018-02-22T09:25:57.411Z,98898.06
2018-02-22T09:28:24.861Z,98900.98
2018-02-22T09:30:52.269Z,98899.83
2018-02-22T09:33:19.681Z,98901.84
2018-02-22T09:35:47.102Z,98902.28
2018-02-22T09:38:14.516Z,98897.68
2018-02-22T09:40:41.932Z,98898.91
2018-02-22T09:43:09.329Z,98901.66
2018-02-22T09:45:36.746Z,98900.00
2018-02-22T09:48:04.155Z,98900.62
2018-02-22T09:50:31.572Z,98900.62
2018-02-22T09:52:58.976Z,98903.67
2018-02-22T09:55:26.400Z,98894.03
2018-02-22T09:57:53.813Z,98901.05
2018-02-22T10:00:21.228Z,98893.50
2018-02-22T10:02:48.635Z,98898.48
2018-02-22T10:05:16.058Z,98893.09
2018-02-22T10:07:43.477Z,98899.49
2018-02-22T10:10:10.900Z,98897.26
2018-02-22T10:12:38.304Z,98895.45
2018-02-22T10:15:05.721Z,98899.57
2018-02-22T10:17:33.124Z,98897.19
2018-02-22T10:20:00.545Z,98900.70
2018-02-22T10:22:27.937Z,98895.53
2018-02-22T10:24:55.354Z,98890.84
2018-02-22T10:27:22.762Z,98896.31
2018-02-22T10:29:50.189Z,98890.06
2018-02-22T10:32:17.592Z,98889.93
2018-02-22T10:34:45.005Z,98886.67
2018-02-22T10:37:12.413Z,98889.87
2018-02-22T10:39:39.822Z,98886.25
2018-02-22T10:42:07.237Z,98891.88
2018-02-22T10:44:34.641Z,98900.98
2018-02-22T10:47:02.061Z,98886.10
2018-02-22T10:49:29.465Z,98891.72
2018-02-22T10:51:56.890Z,98881.88
2018-02-22T10:54:24.306Z,98882.64
2018-02-22T10:56:51.709Z,98882.73
2018-02-22T10:59:19.134Z,98879.98
2018-02-22T11:01:53.153Z,98876.84
2018-02-22T11:04:20.562Z,98872.11
2018-02-22T11:06:47.977Z,98875.38
2018-02-22T11:09:15.398Z,98876.33
2018-02-22T11:11:42.814Z,98878.77
2018-02-22T11:14:10.221Z,98875.91
2018-02-22T11:16:37.634Z,98876.59
2018-02-22T11:19:05.046Z,98865.87
2018-02-22T11:21:32.458Z,98866.30
2018-02-22T11:23:59.875Z,98872.92
2018-02-22T11:26:27.291Z,98865.54
2018-02-22T11:28:54.696Z,98860.80
2018-02-22T11:31:22.117Z,98857.02
2018-02-22T11:33:49.528Z,98859.02
2018-02-22T11:36:16.957Z,98858.75
2018-02-22T11:38:44.361Z,98856.74
2018-02-22T11:41:11.776Z,98847.39
2018-02-22T11:43:39.184Z,98850.55
2018-02-22T11:46:06.598Z,98851.50
2018-02-22T11:48:34.000Z,98843.33
2018-02-22T11:51:01.420Z,98844.76
2018-02-22T11:53:28.833Z,98841.05
2018-02-22T11:55:56.249Z,98833.25
2018-02-22T11:58:23.658Z,98832.56
2018-02-22T12:00:51.076Z,98828.95
2018-02-22T12:03:18.489Z,98822.20
2018-02-22T12:05:45.902Z,98824.61
2018-02-22T12:08:13.309Z,98815.08
2018-02-22T12:10:40.715Z,98822.66
2018-02-22T12:13:08.136Z,98816.31
2018-02-22T12:15:35.542Z,98817.48
2018-02-22T12:18:02.957Z,98821.58
2018-02-22T12:20:30.365Z,98810.72
2018-02-22T12:22:57.776Z,98814.25
2018-02-22T12:25:25.190Z,98814.58
2018-02-22T12:27:52.600Z,98810.05
2018-02-22T12:30:20.022Z,98816.91
2018-02-22T12:32:47.430Z,98815.03
2018-02-22T12:35:14.828Z,98812.11
2018-02-22T12:37:42.240Z,98816.32
2018-02-22T12:40:09.650Z,98814.72
2018-02-22T12:42:37.063Z,98806.52
2018-02-22T12:45:04.466Z,98807.76
2018-02-22T12:47:31.893Z,98805.91
2018-02-22T12:49:59.298Z,98808.56
2018-02-22T12:52:26.718Z,98803.02
2018-02-22T12:54:54.114Z,98799.88
2018-02-22T12:57:21.530Z,98806.24
2018-02-22T12:59:48.925Z,98795.97
2018-02-22T13:02:16.344Z,98806.09
2018-02-22T13:04:43.754Z,98804.36
2018-02-22T13:07:11.158Z,98795.94
2018-02-22T13:09:38.553Z,98797.23
2018-02-22T13:12:05.975Z,98797.32
2018-02-22T13:14:33.374Z,98820.09
2018-02-22T13:17:00.779Z,98803.15
2018-02-22T13:19:28.173Z,98794.95
2018-02-22T13:21:55.586Z,98790.43
2018-02-22T13:24:23.593Z,98798.92
2018-02-22T13:26:51.009Z,98791.44
2018-02-22T13:29:18.402Z,98795.56
2018-02-22T13:31:45.817Z,98790.39
2018-02-22T13:34:25.085Z,98799.98
2018-02-22T13:36:52.497Z,98778.22
2018-02-22T13:39:19.892Z,98785.65
2018-02-22T13:41:47.310Z,98778.48
2018-02-22T13:44:26.582Z,98785.03
2018-02-22T13:46:54.267Z,98788.40
2018-02-22T13:49:33.458Z,98777.94
2018-02-22T13:52:00.864Z,98775.24
2018-02-22T13:54:28.271Z,98783.89
2018-02-22T13:57:07.321Z,98771.02
2018-02-22T13:59:34.717Z,98767.78
2018-02-22T14:02:13.915Z,98772.30
2018-02-22T14:04:41.318Z,98767.12
2018-02-22T14:07:08.721Z,98768.42
2018-02-22T14:09:36.116Z,98767.25
2018-02-22T14:12:03.524Z,98761.66
2018-02-22T14:14:30.925Z,98769.23
2018-02-22T14:16:58.342Z,98767.33
2018-02-22T14:19:25.732Z,98761.80
2018-02-22T14:21:53.138Z,98755.99
2018-02-22T14:24:20.550Z,98758.43
2018-02-22T14:26:47.953Z,98762.93
2018-02-22T14:29:15.358Z,98753.20
2018-02-22T14:31:42.754Z,98759.46
2018-02-22T14:34:10.157Z,98751.45
2018-02-22T14:36:37.560Z,98747.09
2018-02-22T14:39:05.669Z,98758.80
2018-02-22T14:41:33.066Z,98761.61
2018-02-22T14:44:00.474Z,98755.17
2018-02-22T14:46:27.877Z,98761.05
2018-02-22T14:48:56.042Z,98752.37
2018-02-22T14:51:23.454Z,98740.69
2018-02-22T14:53:50.859Z,98745.03
2018-02-22T14:56:18.261Z,98738.86
2018-02-22T14:58:45.667Z,98744.50
2018-02-22T15:01:13.069Z,98741.32
2018-02-22T15:03:40.480Z,98743.70
2018-02-22T15:06:07.876Z,98749.91
2018-02-22T15:08:35.295Z,98742.14
2018-02-22T15:11:02.709Z,98734.59
2018-02-22T15:13:30.105Z,98749.95
2018-02-22T15:15:57.510Z,98748.50
2018-02-22T15:18:24.904Z,98743.28
2018-02-22T15:20:52.353Z,98739.78
2018-02-22T15:23:19.727Z,98738.54
2018-02-22T15:25:47.191Z,98736.42
2018-02-22T15:28:14.545Z,98741.80
2018-02-22T15:30:41.955Z,98744.18
2018-02-22T15:33:09.370Z,98750.11
2018-02-22T15:35:36.775Z,98755.41
2018-02-22T15:38:04.185Z,98749.58
2018-02-22T15:40:31.584Z,98751.37
2018-02-22T15:42:58.989Z,98738.95
2018-02-22T15:45:26.400Z,98741.34
2018-02-22T15:47:53.810Z,98739.77
2018-02-22T15:50:21.223Z,98743.87
2018-02-22T15:52:48.617Z,98739.45
2018-02-22T15:55:16.031Z,98744.36
2018-02-22T15:57:43.442Z,98740.92
2018-02-22T16:00:10.844Z,98742.74
2018-02-22T16:02:38.237Z,98749.09
2018-02-22T16:05:05.645Z,98744.20
2018-02-22T16:07:33.049Z,98753.58
2018-02-22T16:10:00.456Z,98754.25
2018-02-22T16:12:28.525Z,98758.76
2018-02-22T16:14:55.929Z,98754.55
2018-02-22T16:17:23.337Z,98754.10
2018-02-22T16:19:50.745Z,98753.84
2018-02-22T16:22:18.153Z,98753.91
2018-02-22T16:24:45.557Z,98763.95
2018-02-22T16:27:12.962Z,98757.89
2018-02-22T16:29:40.369Z,98756.00
2018-02-22T16:32:07.773Z,98762.15
2018-02-22T16:34:35.186Z,98762.05
2018-02-22T16:37:02.612Z,98758.95
2018-02-22T16:39:30.026Z,98755.57
2018-02-22T16:41:57.429Z,98758.03
2018-02-22T16:44:24.842Z,98766.92
2018-02-22T16:46:52.249Z,98764.67
2018-02-22T16:49:19.673Z,98765.63
2018-02-22T16:51:47.073Z,98764.95
2018-02-22T16:54:14.485Z,98767.95
2018-02-22T16:56:41.891Z,98774.53
2018-02-22T16:59:09.311Z,98776.86
2018-02-22T17:01:36.709Z,98782.35
2018-02-22T17:04:04.117Z,98785.12
2018-02-22T17:06:31.522Z,98789.29
2018-02-22T17:08:58.928Z,98781.85
2018-02-22T17:11:26.328Z,98789.29
2018-02-22T17:13:53.734Z,98791.81
2018-02-22T17:16:21.129Z,98788.56
2018-02-22T17:18:48.550Z,98795.20
2018-02-22T17:21:15.953Z,98793.78
2018-02-22T17:23:43.353Z,98796.05
2018-02-22T17:26:16.272Z,98801.42
2018-02-22T17:28:49.328Z,98792.59
2018-02-22T17:31:22.237Z,98793.49
2018-02-22T17:33:49.634Z,98792.20
2018-02-22T17:39:29.986Z,98793.74
2018-02-22T17:41:57.382Z,98806.63
2018-02-22T17:44:24.799Z,98804.33
2018-02-22T17:46:52.597Z,98805.98
2018-02-22T17:49:20.005Z,98803.92
2018-02-22T17:51:47.409Z,98810.69
2018-02-22T17:54:14.816Z,98807.13
2018-02-22T17:56:42.227Z,98810.89
2018-02-22T17:59:09.621Z,98807.25
2018-02-22T18:01:37.029Z,98808.64
2018-02-22T18:04:04.434Z,98808.92
2018-02-22T18:06:32.258Z,98800.14
2018-02-22T18:08:59.671Z,98814.52
2018-02-22T18:11:27.082Z,98809.08
2018-02-22T18:13:54.483Z,98815.39
2018-02-22T18:16:21.899Z,98814.86
2018-02-22T18:18:49.293Z,98813.25
2018-02-22T18:21:16.702Z,98815.46
2018-02-22T18:23:44.110Z,98816.17
2018-02-22T18:26:11.519Z,98819.73
2018-02-22T18:28:38.918Z,98819.67
2018-02-22T18:31:06.333Z,98817.75
2018-02-22T18:33:33.732Z,98821.14
2018-02-22T18:36:01.141Z,98817.16
2018-02-22T18:38:28.572Z,98821.10
2018-02-22T18:40:59.761Z,98822.33
2018-02-22T18:43:32.737Z,98818.52
2018-02-22T18:46:00.150Z,98825.16
2018-02-22T18:48:27.552Z,98820.39
2018-02-22T18:50:54.968Z,98826.40
2018-02-22T18:53:22.374Z,98827.25
2018-02-22T18:55:49.791Z,98823.45
2018-02-22T18:58:17.185Z,98823.70
2018-02-22T19:00:44.596Z,98826.31
2018-02-22T19:03:11.997Z,98821.20
2018-02-22T19:05:39.419Z,98817.31
2018-02-22T19:08:06.823Z,98819.45
2018-02-22T19:10:34.569Z,98817.72
2018-02-22T19:13:01.965Z,98817.23
2018-02-22T19:15:29.377Z,98820.66
2018-02-22T19:17:56.787Z,98818.95
2018-02-22T19:20:24.196Z,98823.41
2018-02-22T19:22:51.600Z,98821.42
2018-02-22T19:25:19.009Z,98819.59
2018-02-22T19:27:46.413Z,98817.16
2018-02-22T19:30:13.825Z,98825.30
2018-02-22T19:32:41.230Z,98822.63
2018-02-22T19:35:08.640Z,98827.46
2018-02-22T19:37:36.040Z,98829.81
2018-02-22T19:40:03.448Z,98831.36
2018-02-22T19:42:30.866Z,98832.02
2018-02-22T19:44:58.276Z,98819.45
2018-02-22T19:47:25.691Z,98824.89
2018-02-22T19:49:53.739Z,98827.32
2018-02-22T19:52:21.150Z,98829.01
2018-02-22T19:54:48.583Z,98823.12
2018-02-22T19:57:15.963Z,98817.01
2018-02-22T19:59:43.368Z,98814.58
2018-02-22T20:02:11.450Z,98817.23
2018-02-22T20:04:38.848Z,98817.28
2018-02-22T20:07:06.705Z,98821.19
2018-02-22T20:09:34.116Z,98823.76
2018-02-22T20:12:01.532Z,98826.50
2018-02-22T20:14:28.934Z,98828.41
2018-02-22T20:16:56.352Z,98825.19
2018-02-22T20:19:23.746Z,98822.83
2018-02-22T20:21:51.162Z,98820.47
2018-02-22T20:24:18.565Z,98824.57
2018-02-22T20:26:45.990Z,98824.47
2018-02-22T20:29:13.388Z,98820.81
2018-02-22T20:31:40.799Z,98821.90
2018-02-22T20:34:08.205Z,98815.34
2018-02-22T20:36:35.616Z,98816.17
2018-02-22T20:39:03.007Z,98819.02
2018-02-22T20:41:30.425Z,98832.75
2018-02-22T20:43:57.882Z,98825.36
2018-02-22T20:46:25.236Z,98826.02
2018-02-22T20:48:52.640Z,98827.14
2018-02-22T20:51:23.549Z,98833.70
2018-02-22T20:53:50.953Z,98827.92
2018-02-22T20:56:18.366Z,98827.94
2018-02-22T20:58:45.773Z,98829.58
2018-02-22T21:01:13.188Z,98827.09
2018-02-22T21:03:40.598Z,98834.55
2018-02-22T21:06:08.009Z,98826.81
2018-02-22T21:08:35.419Z,98834.62
2018-02-22T21:11:02.824Z,98827.45
2018-02-22T21:13:30.244Z,98837.07
2018-02-22T21:15:57.662Z,98832.20
2018-02-22T21:18:25.072Z,98828.17
2018-02-22T21:20:52.484Z,98829.19
2018-02-22T21:23:19.902Z,98834.55
2018-02-22T21:25:47.318Z,98832.83
2018-02-22T21:28:14.737Z,98826.64
2018-02-22T21:30:42.150Z,98835.49
2018-02-22T21:33:10.192Z,98831.30
2018-02-22T21:35:37.597Z,98824.43
2018-02-22T21:38:05.014Z,98831.41
2018-02-22T21:40:32.421Z,98825.92
2018-02-22T21:42:59.844Z,98830.61
2018-02-22T21:45:27.242Z,98823.73
2018-02-22T21:47:54.702Z,98833.34
2018-02-22T21:50:22.085Z,98833.28
2018-02-22T21:52:49.503Z,98838.49
2018-02-22T21:55:16.920Z,98835.11
2018-02-22T21:57:44.343Z,98843.81
2018-02-22T22:02:37.762Z,98844.95
2018-02-22T22:05:05.205Z,98840.36
2018-02-22T22:07:32.635Z,98845.52
2018-02-22T22:10:00.071Z,98846.59
2018-02-22T22:12:27.503Z,98852.55
2018-02-22T22:14:54.913Z,98853.78
2018-02-22T22:17:22.337Z,98851.41
2018-02-22T22:19:49.749Z,98856.22
2018-02-22T22:22:17.214Z,98854.34
2018-02-22T22:24:44.645Z,98857.45
2018-02-22T22:27:12.597Z,98855.34
2018-02-22T22:29:40.049Z,98858.23
2018-02-22T22:32:07.494Z,98844.23
2018-02-22T22:34:34.921Z,98848.09
2018-02-22T22:37:02.342Z,98848.13
2018-02-22T22:39:29.765Z,98844.31
2018-02-22T22:41:57.827Z,98841.34
2018-02-22T22:44:25.251Z,98835.20
2018-02-22T22:46:52.671Z,98838.83
2018-02-22T22:49:20.088Z,98834.38
2018-02-22T22:51:47.494Z,98834.67
2018-02-22T22:54:14.912Z,98836.88
2018-02-22T22:56:42.336Z,98842.41
2018-02-22T22:59:09.761Z,98836.53
2018-02-22T23:01:37.178Z,98838.33
2018-02-22T23:04:04.617Z,98837.53
2018-02-22T23:06:32.040Z,98832.80
2018-02-22T23:08:59.457Z,98831.99
2018-02-22T23:11:26.870Z,98830.26
2018-02-22T23:13:54.301Z,98826.83
2018-02-22T23:16:21.709Z,98832.98
2018-02-22T23:18:49.130Z,98833.84
2018-02-22T23:21:16.550Z,98832.63
2018-02-22T23:23:44.024Z,98833.48
2018-02-22T23:26:11.490Z,98837.31
2018-02-22T23:28:38.914Z,98837.88
2018-02-22T23:31:06.385Z,98831.46
2018-02-22T23:33:33.816Z,98829.70
2018-02-22T23:36:01.249Z,98831.05
2018-02-22T23:38:28.654Z,98833.25
2018-02-22T23:41:01.706Z,98828.16
2018-02-22T23:43:29.125Z,98834.70
2018-02-22T23:45:56.542Z,98834.31
2018-02-22T23:48:23.962Z,98830.39
2018-02-22T23:50:51.378Z,98832.09
2018-02-22T23:53:18.805Z,98829.52
2018-02-22T23:55:46.615Z,98827.95
2018-02-22T23:58:14.087Z,98826.29
